KSTK

Sterling Municipal Airport

Sterling, Colorado, USA
METAR KSTK 210515Z AUTO 00000KT 10SM CLR 09/07 A3022 RMK AO2
Observed Flight Rules
Aug-21 @ 05:15 UTC (9 hours ago) Visual Flight Rules
Visibility Clouds
10 miles
  • Clear skies
Temperatures Readings
Current 9°C / 48°F
Dewpoint 7°C / 45°F
Humidity 87%
Altimeter 30.22" Hg
Pressure 1023 hPa
Elevation 1231
METAR KSTK 210515Z AUTO 00000KT 10SM CLR 09/07 A3022 RMK AO2
Observed Flight Rules
Aug-21 @ 05:15 UTC
(9 hours ago)
VFR
Clouds
  • Clear skies
Temperature Dewpoint
9°C / 48°F 7°C / 45°F
Humidity Altimeter Pressure
87% 30.22" Hg 1023 hPa